createdAt,value
2022-12-04T00:00:33.293Z,38.88
2022-12-04T00:03:00.147Z,42.53
2022-12-04T00:05:27.038Z,39.53
2022-12-04T00:07:54.351Z,37.92
2022-12-04T00:10:21.152Z,42.00
2022-12-04T00:12:47.926Z,39.72
2022-12-04T00:15:30.569Z,44.20
2022-12-04T00:20:24.093Z,41.28
2022-12-04T00:22:50.905Z,40.80
2022-12-04T00:25:17.809Z,45.97
2022-12-04T00:27:44.640Z,44.35
2022-12-04T00:30:11.894Z,40.42
2022-12-04T00:32:38.666Z,44.53
2022-12-04T00:35:08.765Z,42.92
2022-12-04T00:37:35.605Z,42.60
2022-12-04T00:40:02.295Z,44.85
2022-12-04T00:42:29.138Z,41.92
2022-12-04T00:44:55.928Z,41.92
2022-12-04T00:47:22.621Z,40.83
2022-12-04T00:49:50.588Z,44.33
2022-12-04T00:52:17.378Z,47.55
2022-12-04T00:54:44.120Z,43.28
2022-12-04T00:57:10.858Z,44.45
2022-12-04T00:59:38.328Z,39.13
2022-12-04T01:02:05.210Z,41.85
2022-12-04T01:04:31.950Z,43.47
2022-12-04T01:07:04.827Z,42.25
2022-12-04T01:09:32.807Z,42.40
2022-12-04T01:11:59.493Z,43.30
2022-12-04T01:14:26.188Z,39.97
2022-12-04T01:16:53.082Z,42.33
2022-12-04T01:19:20.136Z,41.10
2022-12-04T01:21:46.877Z,41.78
2022-12-04T01:24:14.695Z,43.28
2022-12-04T01:26:41.676Z,42.45
2022-12-04T01:29:08.430Z,39.55
2022-12-04T01:31:35.174Z,45.08
2022-12-04T01:34:01.948Z,42.05
2022-12-04T01:36:29.308Z,40.58
2022-12-04T01:38:56.611Z,42.63
2022-12-04T01:41:26.779Z,42.42
2022-12-04T01:44:07.649Z,43.55
2022-12-04T01:46:34.545Z,47.33
2022-12-04T01:49:02.828Z,40.42
2022-12-04T01:51:52.756Z,40.83
2022-12-04T01:54:28.538Z,42.42
2022-12-04T01:57:02.471Z,40.10
2022-12-04T01:59:33.394Z,38.45
2022-12-04T02:02:05.726Z,44.05
2022-12-04T02:04:34.115Z,40.55
2022-12-04T02:07:01.011Z,45.75
2022-12-04T02:09:28.507Z,42.78
2022-12-04T02:12:19.929Z,39.95
2022-12-04T02:15:10.526Z,41.92
2022-12-04T02:17:48.187Z,39.80
2022-12-04T02:20:30.272Z,44.80
2022-12-04T02:23:12.014Z,43.95
2022-12-04T02:25:54.318Z,42.97
2022-12-04T02:28:37.348Z,42.78
2022-12-04T02:31:09.219Z,42.25
2022-12-04T02:34:08.150Z,45.95
2022-12-04T02:36:47.310Z,42.42
2022-12-04T02:39:42.947Z,44.20
2022-12-04T02:42:18.552Z,39.85
2022-12-04T02:44:48.819Z,41.67
2022-12-04T02:47:22.472Z,47.60
2022-12-04T02:50:07.081Z,40.97
2022-12-04T02:52:38.787Z,40.88
2022-12-04T02:55:20.325Z,45.20
2022-12-04T02:57:52.549Z,37.90
2022-12-04T03:00:19.897Z,41.40
2022-12-04T03:02:58.277Z,44.08
2022-12-04T03:05:50.982Z,41.60
2022-12-04T03:08:22.937Z,43.10
2022-12-04T03:10:53.417Z,42.65
2022-12-04T03:13:40.266Z,41.15
2022-12-04T03:16:17.996Z,44.47
2022-12-04T03:18:51.588Z,38.05
2022-12-04T03:21:23.419Z,43.33
2022-12-04T03:23:59.137Z,45.05
2022-12-04T03:26:50.541Z,41.97
2022-12-04T03:29:25.271Z,44.63
2022-12-04T03:32:21.544Z,44.40
2022-12-04T03:35:26.388Z,47.10
2022-12-04T03:38:11.462Z,41.55
2022-12-04T03:41:02.015Z,42.75
2022-12-04T03:43:37.912Z,41.67
2022-12-04T03:46:12.549Z,41.85
2022-12-04T03:48:46.906Z,44.10
2022-12-04T03:51:30.095Z,41.05
2022-12-04T03:54:02.350Z,45.25
2022-12-04T03:56:35.146Z,43.28
2022-12-04T03:59:10.269Z,44.28
2022-12-04T04:01:44.984Z,37.28
2022-12-04T04:04:18.081Z,40.42
2022-12-04T04:06:57.114Z,42.05
2022-12-04T04:09:27.403Z,49.40
2022-12-04T04:12:17.886Z,38.33
2022-12-04T04:15:18.213Z,41.53
2022-12-04T04:18:05.894Z,43.28
2022-12-04T04:21:00.758Z,43.13
2022-12-04T04:23:52.582Z,40.28
2022-12-04T04:26:20.756Z,41.88
2022-12-04T04:28:47.640Z,39.28
2022-12-04T04:31:29.860Z,40.83
2022-12-04T04:34:08.445Z,41.47
2022-12-04T04:36:41.500Z,43.85
2022-12-04T04:39:32.971Z,43.30
2022-12-04T04:42:19.834Z,44.92
2022-12-04T04:45:06.861Z,43.13
2022-12-04T04:47:52.021Z,44.53
2022-12-04T04:50:19.991Z,40.47
2022-12-04T04:52:50.829Z,44.03
2022-12-04T04:55:19.382Z,42.70
2022-12-04T04:57:46.406Z,42.95
2022-12-04T05:00:19.601Z,41.00
2022-12-04T05:02:48.569Z,42.97
2022-12-04T05:05:15.588Z,45.33
2022-12-04T05:07:42.391Z,44.28
2022-12-04T05:10:09.940Z,45.45
2022-12-04T05:12:36.759Z,43.45
2022-12-04T05:15:03.631Z,42.85
2022-12-04T05:17:30.366Z,42.75
2022-12-04T05:19:57.837Z,42.00
2022-12-04T05:22:35.572Z,40.80
2022-12-04T05:25:03.549Z,41.65
2022-12-04T05:27:31.406Z,43.88
2022-12-04T05:29:59.167Z,40.08
2022-12-04T05:32:28.303Z,41.88
2022-12-04T05:34:56.543Z,44.55
2022-12-04T05:37:23.950Z,41.33
2022-12-04T05:39:50.593Z,43.30
2022-12-04T05:42:17.686Z,40.65
2022-12-04T05:44:44.325Z,43.63
2022-12-04T05:47:11.738Z,41.45
2022-12-04T05:49:38.524Z,41.42
2022-12-04T05:52:06.053Z,41.65
2022-12-04T05:54:32.786Z,41.25
2022-12-04T05:56:59.667Z,44.70
2022-12-04T05:59:26.456Z,41.08
2022-12-04T06:01:53.301Z,44.20
2022-12-04T06:04:20.257Z,47.33
2022-12-04T06:06:47.181Z,42.00
2022-12-04T06:09:15.261Z,41.75
2022-12-04T06:11:42.779Z,43.47
2022-12-04T06:14:13.503Z,40.80
2022-12-04T06:16:43.934Z,42.88
2022-12-04T06:19:14.204Z,40.45
2022-12-04T06:21:42.841Z,44.67
2022-12-04T06:24:14.904Z,42.28
2022-12-04T06:27:04.134Z,41.38
2022-12-04T06:29:28.571Z,40.45
2022-12-04T06:31:55.659Z,43.35
2022-12-04T06:34:22.421Z,44.30
2022-12-04T06:36:49.192Z,38.30
2022-12-04T06:39:18.837Z,43.88
2022-12-04T06:41:47.606Z,39.92
2022-12-04T06:44:17.500Z,39.60
2022-12-04T06:46:47.127Z,40.67
2022-12-04T06:49:14.676Z,42.17
2022-12-04T06:51:41.663Z,43.80
2022-12-04T06:54:10.212Z,40.08
2022-12-04T06:56:37.006Z,41.92
2022-12-04T06:59:04.805Z,41.85
2022-12-04T07:01:33.759Z,39.15
2022-12-04T07:04:03.831Z,37.55
2022-12-04T07:06:35.777Z,38.28
2022-12-04T07:09:15.024Z,46.25
2022-12-04T07:11:42.959Z,42.15
2022-12-04T07:14:10.590Z,39.88
2022-12-04T07:16:41.428Z,37.75
2022-12-04T07:19:11.512Z,42.10
2022-12-04T07:21:38.551Z,45.65
2022-12-04T07:24:05.745Z,38.50
2022-12-04T07:26:32.502Z,42.05
2022-12-04T07:29:00.165Z,40.47
2022-12-04T07:31:28.976Z,42.85
2022-12-04T07:33:56.803Z,40.63
2022-12-04T07:36:24.713Z,39.75
2022-12-04T07:38:51.767Z,37.65
2022-12-04T07:41:19.174Z,41.22
2022-12-04T07:43:46.373Z,43.13
2022-12-04T07:46:16.591Z,40.75
2022-12-04T07:48:44.010Z,40.42
2022-12-04T07:51:17.142Z,38.53
2022-12-04T07:53:44.395Z,42.22
2022-12-04T07:56:12.875Z,40.47
2022-12-04T07:58:40.132Z,37.92
2022-12-04T08:01:15.944Z,38.92
2022-12-04T08:03:48.083Z,41.97
2022-12-04T08:06:17.115Z,38.63
2022-12-04T08:08:43.833Z,40.60
2022-12-04T08:11:13.298Z,41.80
2022-12-04T08:13:40.109Z,39.40
2022-12-04T08:16:08.962Z,36.95
2022-12-04T08:18:36.029Z,43.05
2022-12-04T08:21:11.159Z,41.22
2022-12-04T08:23:38.459Z,37.92
2022-12-04T08:26:06.900Z,44.15
2022-12-04T08:28:34.868Z,40.65
2022-12-04T08:31:05.592Z,41.97
2022-12-04T08:33:33.151Z,39.75
2022-12-04T08:36:00.568Z,42.42
2022-12-04T08:38:27.452Z,43.95
2022-12-04T08:40:54.243Z,41.22
2022-12-04T08:43:20.982Z,39.22
2022-12-04T08:45:56.471Z,39.15
2022-12-04T08:48:23.475Z,38.70
2022-12-04T08:50:50.238Z,38.85
2022-12-04T08:53:19.082Z,37.55
2022-12-04T08:55:46.144Z,40.60
2022-12-04T08:58:14.226Z,38.45
2022-12-04T09:00:41.066Z,40.25
2022-12-04T09:03:07.858Z,40.15
2022-12-04T09:05:34.666Z,37.17
2022-12-04T09:08:01.454Z,35.30
2022-12-04T09:10:28.233Z,38.65
2022-12-04T09:12:54.851Z,38.45
2022-12-04T09:15:21.626Z,36.03
2022-12-04T09:17:48.352Z,40.20
2022-12-04T09:20:15.144Z,38.75
2022-12-04T09:23:02.851Z,38.45
2022-12-04T09:25:28.635Z,32.03
2022-12-04T09:27:55.385Z,40.50
2022-12-04T09:30:22.136Z,34.25
2022-12-04T09:32:48.866Z,39.92
2022-12-04T09:35:15.770Z,38.63
2022-12-04T09:37:42.449Z,37.47
2022-12-04T09:40:37.133Z,36.10
2022-12-04T09:43:28.935Z,33.15
2022-12-04T09:46:02.404Z,37.00
2022-12-04T09:48:35.632Z,37.72
2022-12-04T09:51:05.682Z,34.47
2022-12-04T09:53:43.536Z,33.72
2022-12-04T09:56:19.759Z,38.08
2022-12-04T09:59:12.755Z,38.20
2022-12-04T10:01:42.529Z,34.05
2022-12-04T10:04:11.730Z,36.42
2022-12-04T10:06:48.998Z,35.10
2022-12-04T10:09:31.271Z,35.30
2022-12-04T10:14:39.787Z,33.33
2022-12-04T10:17:51.690Z,31.08
2022-12-04T10:20:49.916Z,36.05
2022-12-04T10:23:22.440Z,31.67
2022-12-04T10:28:39.012Z,34.47
2022-12-04T10:31:13.512Z,30.52
2022-12-04T10:33:53.754Z,27.98
2022-12-04T10:36:23.709Z,27.77
2022-12-04T10:39:05.397Z,28.20
2022-12-04T10:41:42.993Z,26.52
2022-12-04T10:44:18.234Z,26.17
2022-12-04T10:46:46.606Z,27.00
2022-12-04T10:49:24.410Z,26.55
2022-12-04T10:51:51.410Z,25.73
2022-12-04T10:54:42.002Z,25.83
2022-12-04T10:57:11.511Z,26.25
2022-12-04T10:59:53.613Z,27.45
2022-12-04T11:02:29.794Z,22.75
2022-12-04T11:05:00.920Z,24.83
2022-12-04T11:07:37.006Z,24.88
2022-12-04T11:10:03.821Z,25.42
2022-12-04T11:12:32.481Z,23.33
2022-12-04T11:15:17.423Z,23.83
2022-12-04T11:17:44.195Z,25.27
2022-12-04T11:20:23.862Z,20.83
2022-12-04T11:22:59.199Z,25.85
2022-12-04T11:25:30.548Z,24.30
2022-12-04T11:28:00.894Z,20.88
2022-12-04T11:30:37.749Z,18.65
2022-12-04T11:33:15.633Z,18.30
2022-12-04T11:35:42.703Z,20.60
2022-12-04T11:38:17.428Z,21.10
2022-12-04T11:40:56.659Z,22.02
2022-12-04T11:43:29.495Z,20.88
2022-12-04T11:45:59.298Z,22.08
2022-12-04T11:48:29.124Z,21.70
2022-12-04T11:51:28.011Z,20.23
2022-12-04T11:54:46.361Z,16.30
2022-12-04T11:57:44.129Z,18.50
2022-12-04T12:00:22.859Z,18.05
2022-12-04T12:03:17.102Z,18.15
2022-12-04T12:06:07.481Z,18.52
2022-12-04T12:08:43.094Z,16.13
2022-12-04T12:11:18.440Z,16.83
2022-12-04T12:14:08.617Z,17.75
2022-12-04T12:16:48.565Z,18.30
2022-12-04T12:19:23.032Z,18.27
2022-12-04T12:22:25.921Z,11.93
2022-12-04T12:25:37.679Z,18.90
2022-12-04T12:28:23.254Z,16.80
2022-12-04T12:31:07.449Z,14.25
2022-12-04T12:33:47.513Z,17.35
2022-12-04T12:36:15.219Z,18.08
2022-12-04T12:38:49.210Z,15.60
2022-12-04T12:41:21.341Z,17.88
2022-12-04T12:44:01.047Z,14.80
2022-12-04T12:46:34.697Z,16.42
2022-12-04T12:49:25.442Z,17.27
2022-12-04T12:51:55.726Z,15.30
2022-12-04T12:54:41.297Z,16.08
2022-12-04T12:57:39.412Z,17.13
2022-12-04T13:00:21.681Z,15.88
2022-12-04T13:03:21.288Z,16.98
2022-12-04T13:05:51.989Z,14.73
2022-12-04T13:08:34.177Z,15.80
2022-12-04T13:11:22.421Z,17.08
2022-12-04T13:14:02.931Z,15.70
2022-12-04T13:16:38.660Z,15.13
2022-12-04T13:19:26.527Z,17.15
2022-12-04T13:22:00.123Z,15.50
2022-12-04T13:24:35.977Z,18.35
2022-12-04T13:27:40.193Z,14.57
2022-12-04T13:30:20.249Z,16.25
2022-12-04T13:33:18.887Z,15.48
2022-12-04T13:36:09.998Z,14.52
2022-12-04T13:38:58.307Z,17.23
2022-12-04T13:41:27.131Z,14.57
2022-12-04T13:43:55.112Z,15.43
2022-12-04T13:46:40.632Z,15.77
2022-12-04T13:49:30.515Z,17.33
2022-12-04T13:51:58.944Z,18.30
2022-12-04T13:54:29.021Z,15.00
2022-12-04T13:57:16.234Z,15.65
2022-12-04T13:59:43.639Z,18.08
2022-12-04T14:02:35.738Z,18.08
2022-12-04T14:05:09.121Z,16.73
2022-12-04T14:07:38.954Z,17.27
2022-12-04T14:10:08.868Z,17.58
2022-12-04T14:12:39.121Z,20.80
2022-12-04T14:15:07.446Z,18.58
2022-12-04T14:17:37.275Z,18.00
2022-12-04T14:20:27.375Z,15.55
2022-12-04T14:22:54.353Z,18.63
2022-12-04T14:25:34.758Z,19.20
2022-12-04T14:28:15.862Z,18.42
2022-12-04T14:30:44.137Z,21.83
2022-12-04T14:33:21.346Z,19.42
2022-12-04T14:36:10.307Z,20.75
2022-12-04T14:38:38.174Z,19.65
2022-12-04T14:41:04.966Z,20.40
2022-12-04T14:43:45.069Z,22.35
2022-12-04T14:46:43.292Z,23.80
2022-12-04T14:49:37.792Z,22.50
2022-12-04T14:52:31.512Z,22.20
2022-12-04T14:55:27.945Z,22.05
2022-12-04T14:58:23.002Z,22.25
2022-12-04T15:00:52.716Z,25.02
2022-12-04T15:03:20.219Z,26.67
2022-12-04T15:05:47.570Z,24.30
2022-12-04T15:08:15.250Z,24.67
2022-12-04T15:11:08.910Z,24.95
2022-12-04T15:13:37.954Z,24.70
2022-12-04T15:16:18.208Z,27.00
2022-12-04T15:18:59.775Z,28.52
2022-12-04T15:21:39.036Z,27.65
2022-12-04T15:24:11.355Z,29.80
2022-12-04T15:26:39.825Z,26.00
2022-12-04T15:29:08.485Z,30.02
2022-12-04T15:31:43.520Z,26.92
2022-12-04T15:34:16.091Z,27.40
2022-12-04T15:39:37.937Z,27.02
2022-12-04T15:42:06.822Z,28.10
2022-12-04T15:44:35.200Z,30.08
2022-12-04T15:47:14.935Z,27.45
2022-12-04T15:49:41.648Z,28.52
2022-12-04T15:52:14.929Z,30.35
2022-12-04T15:55:02.557Z,31.73
2022-12-04T15:57:34.109Z,30.65
2022-12-04T16:00:05.195Z,31.53
2022-12-04T16:02:40.001Z,30.92
2022-12-04T16:05:22.031Z,34.67
2022-12-04T16:07:54.526Z,30.23
2022-12-04T16:12:57.816Z,30.58
2022-12-04T16:15:27.580Z,25.90
2022-12-04T16:17:54.369Z,28.92
2022-12-04T16:20:21.086Z,26.70
2022-12-04T16:22:51.896Z,27.40
2022-12-04T16:25:18.651Z,26.92
2022-12-04T16:27:45.350Z,30.73
2022-12-04T16:30:14.373Z,28.05
2022-12-04T16:32:41.427Z,31.77
2022-12-04T16:35:17.988Z,30.65
2022-12-04T16:37:45.050Z,29.25
2022-12-04T16:40:13.445Z,27.33
2022-12-04T16:42:41.075Z,26.80
2022-12-04T16:45:28.566Z,32.55
2022-12-04T16:47:56.171Z,28.65
2022-12-04T16:50:24.593Z,28.35
2022-12-04T16:52:51.650Z,27.77
2022-12-04T16:55:24.423Z,30.40
2022-12-04T16:57:51.178Z,26.48
2022-12-04T17:00:18.724Z,28.35
2022-12-04T17:02:46.334Z,29.63
2022-12-04T17:05:20.037Z,27.45
2022-12-04T17:07:47.392Z,26.60
2022-12-04T17:10:17.693Z,29.40
2022-12-04T17:12:49.168Z,29.00
2022-12-04T17:15:16.013Z,27.65
2022-12-04T17:17:42.702Z,25.35
2022-12-04T17:20:14.356Z,27.08
2022-12-04T17:22:41.871Z,28.07
2022-12-04T17:25:09.478Z,28.17
2022-12-04T17:27:36.680Z,25.65
2022-12-04T17:30:04.771Z,28.27
2022-12-04T17:32:33.295Z,25.92
2022-12-04T17:35:00.288Z,26.08
2022-12-04T17:37:27.432Z,28.52
2022-12-04T17:39:54.193Z,26.20
2022-12-04T17:42:21.010Z,27.02
2022-12-04T17:44:47.852Z,23.83
2022-12-04T17:47:14.872Z,25.85
2022-12-04T17:49:41.692Z,26.58
2022-12-04T17:52:08.551Z,25.08
2022-12-04T17:54:35.326Z,26.30
2022-12-04T17:57:02.183Z,26.95
2022-12-04T17:59:29.013Z,24.88
2022-12-04T18:01:55.716Z,26.27
2022-12-04T18:04:22.481Z,24.05
2022-12-04T18:06:49.389Z,25.13
2022-12-04T18:09:17.253Z,27.05
2022-12-04T18:11:46.598Z,26.55
2022-12-04T18:14:18.674Z,27.25
2022-12-04T18:16:48.182Z,28.05
2022-12-04T18:19:16.659Z,29.40
2022-12-04T18:21:43.501Z,26.02
2022-12-04T18:24:10.296Z,28.23
2022-12-04T18:26:42.612Z,24.30
2022-12-04T18:29:12.746Z,27.42
2022-12-04T18:31:39.873Z,23.15
2022-12-04T18:34:07.597Z,23.67
2022-12-04T18:36:36.333Z,22.73
2022-12-04T18:39:10.651Z,23.80
2022-12-04T18:41:37.912Z,26.27
2022-12-04T18:44:04.797Z,27.73
2022-12-04T18:46:32.961Z,23.45
2022-12-04T18:49:00.229Z,24.90
2022-12-04T18:51:31.277Z,28.30
2022-12-04T18:54:03.588Z,23.90
2022-12-04T18:56:32.272Z,26.92
2022-12-04T18:59:23.076Z,22.65
2022-12-04T19:01:50.412Z,28.95
2022-12-04T19:04:19.689Z,26.08
2022-12-04T19:06:50.314Z,26.95
2022-12-04T19:09:19.311Z,29.35
2022-12-04T19:11:46.105Z,28.88
2022-12-04T19:14:22.463Z,32.70
2022-12-04T19:16:50.628Z,25.52
2022-12-04T19:19:17.795Z,31.35
2022-12-04T19:21:44.718Z,26.77
2022-12-04T19:24:11.834Z,32.53
2022-12-04T19:26:39.248Z,33.33
2022-12-04T19:29:07.984Z,28.45
2022-12-04T19:31:36.957Z,28.73
2022-12-04T19:34:04.329Z,27.38
2022-12-04T19:36:32.189Z,32.03
2022-12-04T19:39:00.161Z,27.98
2022-12-04T19:41:30.074Z,28.75
2022-12-04T19:43:59.498Z,29.25
2022-12-04T19:46:29.162Z,26.33
2022-12-04T19:48:58.674Z,31.58
2022-12-04T19:51:26.296Z,28.48
2022-12-04T19:53:54.443Z,33.28
2022-12-04T19:56:26.809Z,28.30
2022-12-04T19:58:56.408Z,29.25
2022-12-04T20:01:25.350Z,28.98
2022-12-04T20:03:52.806Z,30.52
2022-12-04T20:06:21.701Z,32.10
2022-12-04T20:08:56.781Z,32.30
2022-12-04T20:11:24.186Z,28.27
2022-12-04T20:13:55.422Z,31.58
2022-12-04T20:16:23.963Z,34.35
2022-12-04T20:18:50.863Z,33.20
2022-12-04T20:21:17.753Z,33.85
2022-12-04T20:23:49.914Z,29.55
2022-12-04T20:26:21.170Z,32.88
2022-12-04T20:28:48.729Z,32.75
2022-12-04T20:31:18.584Z,28.80
2022-12-04T20:33:47.177Z,31.25
2022-12-04T20:36:15.603Z,32.17
2022-12-04T20:38:42.544Z,31.60
2022-12-04T20:41:13.697Z,32.53
2022-12-04T20:43:40.484Z,31.58
2022-12-04T20:46:22.074Z,31.88
2022-12-04T20:48:49.940Z,33.17
2022-12-04T20:51:22.159Z,33.55
2022-12-04T20:53:50.641Z,33.92
2022-12-04T20:56:18.712Z,36.40
2022-12-04T20:58:45.912Z,36.92
2022-12-04T21:01:14.648Z,31.95
2022-12-04T21:03:42.107Z,35.00
2022-12-04T21:06:19.755Z,33.83
2022-12-04T21:08:53.355Z,32.80
2022-12-04T21:11:21.784Z,38.85
2022-12-04T21:14:07.265Z,36.05
2022-12-04T21:16:34.212Z,33.05
2022-12-04T21:19:02.640Z,35.17
2022-12-04T21:21:29.609Z,32.92
2022-12-04T21:23:56.701Z,32.25
2022-12-04T21:26:23.628Z,33.67
2022-12-04T21:28:50.345Z,31.92
2022-12-04T21:31:17.037Z,36.33
2022-12-04T21:33:43.872Z,34.47
2022-12-04T21:36:10.749Z,35.45
2022-12-04T21:38:39.032Z,38.70
2022-12-04T21:41:08.121Z,36.22
2022-12-04T21:43:36.752Z,31.98
2022-12-04T21:46:09.590Z,34.67
2022-12-04T21:48:37.102Z,36.72
2022-12-04T21:51:16.905Z,34.78
2022-12-04T21:53:54.826Z,40.58
2022-12-04T21:56:22.560Z,34.40
2022-12-04T21:58:49.648Z,32.00
2022-12-04T22:01:18.194Z,37.88
2022-12-04T22:03:45.116Z,34.22
2022-12-04T22:06:12.691Z,34.33
2022-12-04T22:08:41.020Z,33.70
2022-12-04T22:11:09.654Z,33.00
2022-12-04T22:13:37.215Z,37.88
2022-12-04T22:16:06.355Z,36.97
2022-12-04T22:18:33.985Z,38.25
2022-12-04T22:21:06.190Z,34.60
2022-12-04T22:23:33.185Z,38.10
2022-12-04T22:26:12.317Z,38.35
2022-12-04T22:28:40.398Z,28.90
2022-12-04T22:31:11.037Z,37.75
2022-12-04T22:33:38.325Z,33.67
2022-12-04T22:36:07.676Z,38.35
2022-12-04T22:38:42.476Z,35.55
2022-12-04T22:41:21.535Z,37.42
2022-12-04T22:43:48.275Z,34.88
2022-12-04T22:46:15.695Z,31.17
2022-12-04T22:48:43.722Z,35.15
2022-12-04T22:51:16.483Z,36.20
2022-12-04T22:53:47.320Z,34.75
2022-12-04T22:56:22.679Z,37.50
2022-12-04T22:58:50.119Z,37.22
2022-12-04T23:01:18.302Z,33.97
2022-12-04T23:03:46.057Z,41.67
2022-12-04T23:06:13.934Z,33.60
2022-12-04T23:08:41.843Z,37.10
2022-12-04T23:11:11.245Z,36.03
2022-12-04T23:13:38.552Z,32.63
2022-12-04T23:16:09.501Z,36.53
2022-12-04T23:18:37.049Z,35.23
2022-12-04T23:21:09.524Z,36.22
2022-12-04T23:26:09.306Z,36.70
2022-12-04T23:28:36.460Z,35.08
2022-12-04T23:31:03.977Z,36.45
2022-12-04T23:33:31.474Z,33.42
2022-12-04T23:36:00.104Z,36.30
2022-12-04T23:38:28.027Z,36.40
2022-12-04T23:41:11.448Z,33.65
2022-12-04T23:43:38.771Z,31.45
2022-12-04T23:46:10.934Z,33.53
2022-12-04T23:48:39.047Z,34.67
2022-12-04T23:51:06.310Z,35.35
2022-12-04T23:53:33.049Z,34.15
2022-12-04T23:56:14.012Z,31.45
2022-12-04T23:58:41.113Z,30.67
